sensor_id;sensor_type;location;lat;lon;timestamp;P1;durP1;ratioP1;P2;durP2;ratioP2
45198;SDS011;30941;46.422;18.772;2023-06-14T00:01:34;6.20;;;4.07;;
45198;SDS011;30941;46.422;18.772;2023-06-14T00:04:00;9.23;;;3.83;;
45198;SDS011;30941;46.422;18.772;2023-06-14T00:06:26;5.53;;;3.80;;
45198;SDS011;30941;46.422;18.772;2023-06-14T00:08:53;7.25;;;3.97;;
45198;SDS011;30941;46.422;18.772;2023-06-14T00:11:19;6.15;;;4.00;;
45198;SDS011;30941;46.422;18.772;2023-06-14T00:13:45;5.72;;;3.78;;
45198;SDS011;30941;46.422;18.772;2023-06-14T00:16:11;6.70;;;4.03;;
45198;SDS011;30941;46.422;18.772;2023-06-14T00:18:36;6.38;;;3.63;;
45198;SDS011;30941;46.422;18.772;2023-06-14T00:21:03;6.10;;;3.88;;
45198;SDS011;30941;46.422;18.772;2023-06-14T00:23:29;7.18;;;3.95;;
45198;SDS011;30941;46.422;18.772;2023-06-14T00:25:54;5.97;;;3.70;;
45198;SDS011;30941;46.422;18.772;2023-06-14T00:28:20;8.68;;;3.85;;
45198;SDS011;30941;46.422;18.772;2023-06-14T00:30:45;6.78;;;4.75;;
45198;SDS011;30941;46.422;18.772;2023-06-14T00:33:11;4.28;;;3.35;;
45198;SDS011;30941;46.422;18.772;2023-06-14T00:35:37;4.63;;;3.22;;
45198;SDS011;30941;46.422;18.772;2023-06-14T00:38:02;5.38;;;3.83;;
45198;SDS011;30941;46.422;18.772;2023-06-14T00:40:28;7.00;;;3.83;;
45198;SDS011;30941;46.422;18.772;2023-06-14T00:42:53;9.65;;;4.78;;
45198;SDS011;30941;46.422;18.772;2023-06-14T00:45:19;6.70;;;3.75;;
45198;SDS011;30941;46.422;18.772;2023-06-14T00:47:45;8.07;;;4.10;;
45198;SDS011;30941;46.422;18.772;2023-06-14T00:50:11;6.65;;;4.32;;
45198;SDS011;30941;46.422;18.772;2023-06-14T00:52:36;5.30;;;3.65;;
45198;SDS011;30941;46.422;18.772;2023-06-14T00:55:02;6.18;;;3.97;;
45198;SDS011;30941;46.422;18.772;2023-06-14T00:57:28;5.97;;;3.45;;
45198;SDS011;30941;46.422;18.772;2023-06-14T00:59:54;6.50;;;3.83;;
45198;SDS011;30941;46.422;18.772;2023-06-14T01:02:20;4.97;;;3.70;;
45198;SDS011;30941;46.422;18.772;2023-06-14T01:04:47;6.50;;;3.92;;
45198;SDS011;30941;46.422;18.772;2023-06-14T01:12:41;5.63;;;4.18;;
45198;SDS011;30941;46.422;18.772;2023-06-14T01:15:13;5.13;;;3.75;;
45198;SDS011;30941;46.422;18.772;2023-06-14T01:17:38;6.13;;;4.07;;
45198;SDS011;30941;46.422;18.772;2023-06-14T01:20:06;5.70;;;4.10;;
45198;SDS011;30941;46.422;18.772;2023-06-14T01:22:37;5.07;;;3.45;;
45198;SDS011;30941;46.422;18.772;2023-06-14T01:25:08;6.00;;;3.72;;
45198;SDS011;30941;46.422;18.772;2023-06-14T01:27:33;6.72;;;4.00;;
45198;SDS011;30941;46.422;18.772;2023-06-14T01:29:58;5.97;;;4.28;;
45198;SDS011;30941;46.422;18.772;2023-06-14T01:32:28;5.50;;;3.80;;
45198;SDS011;30941;46.422;18.772;2023-06-14T01:34:54;6.00;;;4.00;;
45198;SDS011;30941;46.422;18.772;2023-06-14T01:37:20;7.53;;;4.15;;
45198;SDS011;30941;46.422;18.772;2023-06-14T01:39:47;5.10;;;3.70;;
45198;SDS011;30941;46.422;18.772;2023-06-14T01:42:14;6.35;;;4.07;;
45198;SDS011;30941;46.422;18.772;2023-06-14T01:44:42;10.35;;;3.85;;
45198;SDS011;30941;46.422;18.772;2023-06-14T01:47:08;6.85;;;4.28;;
45198;SDS011;30941;46.422;18.772;2023-06-14T01:49:34;7.30;;;4.00;;
45198;SDS011;30941;46.422;18.772;2023-06-14T01:52:00;6.45;;;4.55;;
45198;SDS011;30941;46.422;18.772;2023-06-14T01:54:25;6.70;;;4.25;;
45198;SDS011;30941;46.422;18.772;2023-06-14T01:56:51;8.27;;;4.40;;
45198;SDS011;30941;46.422;18.772;2023-06-14T01:59:16;7.82;;;4.72;;
45198;SDS011;30941;46.422;18.772;2023-06-14T02:01:42;8.40;;;4.32;;
45198;SDS011;30941;46.422;18.772;2023-06-14T02:04:07;6.22;;;4.63;;
45198;SDS011;30941;46.422;18.772;2023-06-14T02:06:33;5.57;;;4.03;;
45198;SDS011;30941;46.422;18.772;2023-06-14T02:09:00;6.78;;;4.20;;
45198;SDS011;30941;46.422;18.772;2023-06-14T02:11:26;7.75;;;4.38;;
45198;SDS011;30941;46.422;18.772;2023-06-14T02:13:52;7.43;;;5.00;;
45198;SDS011;30941;46.422;18.772;2023-06-14T02:16:17;7.65;;;4.50;;
45198;SDS011;30941;46.422;18.772;2023-06-14T02:18:43;6.95;;;4.30;;
45198;SDS011;30941;46.422;18.772;2023-06-14T02:21:08;7.68;;;4.40;;
45198;SDS011;30941;46.422;18.772;2023-06-14T02:23:33;6.97;;;4.20;;
45198;SDS011;30941;46.422;18.772;2023-06-14T02:25:59;5.68;;;3.92;;
45198;SDS011;30941;46.422;18.772;2023-06-14T02:28:24;5.88;;;4.28;;
45198;SDS011;30941;46.422;18.772;2023-06-14T02:30:50;9.30;;;4.35;;
45198;SDS011;30941;46.422;18.772;2023-06-14T02:33:15;6.13;;;4.10;;
45198;SDS011;30941;46.422;18.772;2023-06-14T02:35:42;6.78;;;4.10;;
45198;SDS011;30941;46.422;18.772;2023-06-14T02:38:08;5.75;;;4.07;;
45198;SDS011;30941;46.422;18.772;2023-06-14T02:40:33;7.97;;;4.40;;
45198;SDS011;30941;46.422;18.772;2023-06-14T02:42:58;9.43;;;4.22;;
45198;SDS011;30941;46.422;18.772;2023-06-14T02:45:24;9.15;;;4.80;;
45198;SDS011;30941;46.422;18.772;2023-06-14T02:47:50;5.50;;;4.05;;
45198;SDS011;30941;46.422;18.772;2023-06-14T02:50:16;5.88;;;4.07;;
45198;SDS011;30941;46.422;18.772;2023-06-14T02:52:42;6.05;;;4.45;;
45198;SDS011;30941;46.422;18.772;2023-06-14T02:55:09;7.60;;;3.92;;
45198;SDS011;30941;46.422;18.772;2023-06-14T02:57:35;7.20;;;4.40;;
45198;SDS011;30941;46.422;18.772;2023-06-14T03:00:00;7.85;;;4.28;;
45198;SDS011;30941;46.422;18.772;2023-06-14T03:02:26;6.22;;;4.57;;
45198;SDS011;30941;46.422;18.772;2023-06-14T03:04:51;7.15;;;4.28;;
45198;SDS011;30941;46.422;18.772;2023-06-14T03:07:16;12.15;;;4.38;;
45198;SDS011;30941;46.422;18.772;2023-06-14T03:09:44;9.07;;;4.82;;
45198;SDS011;30941;46.422;18.772;2023-06-14T03:12:10;6.10;;;4.20;;
45198;SDS011;30941;46.422;18.772;2023-06-14T03:14:36;6.18;;;4.25;;
45198;SDS011;30941;46.422;18.772;2023-06-14T03:17:02;5.90;;;4.13;;
45198;SDS011;30941;46.422;18.772;2023-06-14T03:19:29;5.53;;;4.00;;
45198;SDS011;30941;46.422;18.772;2023-06-14T03:21:55;6.32;;;4.72;;
45198;SDS011;30941;46.422;18.772;2023-06-14T03:24:22;9.32;;;4.38;;
45198;SDS011;30941;46.422;18.772;2023-06-14T03:26:49;5.18;;;4.22;;
45198;SDS011;30941;46.422;18.772;2023-06-14T03:29:14;6.20;;;4.10;;
45198;SDS011;30941;46.422;18.772;2023-06-14T03:31:55;10.02;;;4.47;;
45198;SDS011;30941;46.422;18.772;2023-06-14T03:34:23;5.93;;;3.67;;
45198;SDS011;30941;46.422;18.772;2023-06-14T03:36:48;6.65;;;4.20;;
45198;SDS011;30941;46.422;18.772;2023-06-14T03:39:14;8.63;;;4.05;;
45198;SDS011;30941;46.422;18.772;2023-06-14T03:41:39;6.68;;;4.38;;
45198;SDS011;30941;46.422;18.772;2023-06-14T03:44:05;7.25;;;4.65;;
45198;SDS011;30941;46.422;18.772;2023-06-14T03:46:30;5.82;;;4.28;;
45198;SDS011;30941;46.422;18.772;2023-06-14T03:48:56;6.03;;;4.10;;
45198;SDS011;30941;46.422;18.772;2023-06-14T03:51:22;11.20;;;4.75;;
45198;SDS011;30941;46.422;18.772;2023-06-14T03:53:47;7.72;;;4.50;;
45198;SDS011;30941;46.422;18.772;2023-06-14T03:56:13;7.30;;;4.13;;
45198;SDS011;30941;46.422;18.772;2023-06-14T03:58:38;8.95;;;4.57;;
45198;SDS011;30941;46.422;18.772;2023-06-14T04:01:03;9.23;;;4.30;;
45198;SDS011;30941;46.422;18.772;2023-06-14T04:03:29;6.07;;;4.38;;
45198;SDS011;30941;46.422;18.772;2023-06-14T04:05:54;6.22;;;4.15;;
45198;SDS011;30941;46.422;18.772;2023-06-14T04:08:21;6.72;;;4.47;;
45198;SDS011;30941;46.422;18.772;2023-06-14T04:10:47;8.10;;;4.57;;
45198;SDS011;30941;46.422;18.772;2023-06-14T04:13:12;11.32;;;4.63;;
45198;SDS011;30941;46.422;18.772;2023-06-14T04:15:38;7.00;;;4.20;;
45198;SDS011;30941;46.422;18.772;2023-06-14T04:18:07;7.00;;;4.80;;
45198;SDS011;30941;46.422;18.772;2023-06-14T04:20:33;10.27;;;5.10;;
45198;SDS011;30941;46.422;18.772;2023-06-14T04:23:10;7.07;;;4.85;;
45198;SDS011;30941;46.422;18.772;2023-06-14T04:25:39;5.95;;;4.57;;
45198;SDS011;30941;46.422;18.772;2023-06-14T04:28:05;10.23;;;5.65;;
45198;SDS011;30941;46.422;18.772;2023-06-14T04:30:33;7.80;;;5.03;;
45198;SDS011;30941;46.422;18.772;2023-06-14T04:33:00;9.50;;;4.97;;
45198;SDS011;30941;46.422;18.772;2023-06-14T04:35:25;7.53;;;4.38;;
45198;SDS011;30941;46.422;18.772;2023-06-14T04:37:52;8.70;;;4.95;;
45198;SDS011;30941;46.422;18.772;2023-06-14T04:40:18;8.77;;;5.00;;
45198;SDS011;30941;46.422;18.772;2023-06-14T04:42:43;7.35;;;4.72;;
45198;SDS011;30941;46.422;18.772;2023-06-14T04:45:11;7.47;;;5.10;;
45198;SDS011;30941;46.422;18.772;2023-06-14T04:47:36;11.38;;;5.35;;
45198;SDS011;30941;46.422;18.772;2023-06-14T04:50:02;8.68;;;5.15;;
45198;SDS011;30941;46.422;18.772;2023-06-14T04:52:28;11.82;;;6.03;;
45198;SDS011;30941;46.422;18.772;2023-06-14T04:54:55;8.90;;;5.28;;
45198;SDS011;30941;46.422;18.772;2023-06-14T04:57:20;9.63;;;5.75;;
45198;SDS011;30941;46.422;18.772;2023-06-14T04:59:47;8.88;;;6.15;;
45198;SDS011;30941;46.422;18.772;2023-06-14T05:02:13;9.13;;;6.13;;
45198;SDS011;30941;46.422;18.772;2023-06-14T05:04:39;8.48;;;4.78;;
45198;SDS011;30941;46.422;18.772;2023-06-14T05:07:08;7.90;;;5.25;;
45198;SDS011;30941;46.422;18.772;2023-06-14T05:09:34;7.82;;;5.05;;
45198;SDS011;30941;46.422;18.772;2023-06-14T05:12:00;7.68;;;4.70;;
45198;SDS011;30941;46.422;18.772;2023-06-14T05:14:26;9.05;;;5.35;;
45198;SDS011;30941;46.422;18.772;2023-06-14T05:16:51;9.02;;;5.22;;
45198;SDS011;30941;46.422;18.772;2023-06-14T05:19:17;8.57;;;4.68;;
45198;SDS011;30941;46.422;18.772;2023-06-14T05:21:43;6.65;;;4.40;;
45198;SDS011;30941;46.422;18.772;2023-06-14T05:24:09;9.10;;;4.65;;
45198;SDS011;30941;46.422;18.772;2023-06-14T05:26:34;9.65;;;4.47;;
45198;SDS011;30941;46.422;18.772;2023-06-14T05:29:00;6.13;;;4.72;;
45198;SDS011;30941;46.422;18.772;2023-06-14T05:31:26;8.75;;;4.72;;
45198;SDS011;30941;46.422;18.772;2023-06-14T05:33:53;5.82;;;3.80;;
45198;SDS011;30941;46.422;18.772;2023-06-14T05:36:19;8.32;;;4.13;;
45198;SDS011;30941;46.422;18.772;2023-06-14T05:38:46;6.57;;;4.18;;
45198;SDS011;30941;46.422;18.772;2023-06-14T05:41:11;9.00;;;4.25;;
45198;SDS011;30941;46.422;18.772;2023-06-14T05:43:37;8.20;;;4.32;;
45198;SDS011;30941;46.422;18.772;2023-06-14T05:46:02;7.10;;;4.57;;
45198;SDS011;30941;46.422;18.772;2023-06-14T05:48:28;6.63;;;3.92;;
45198;SDS011;30941;46.422;18.772;2023-06-14T05:50:55;7.32;;;4.25;;
45198;SDS011;30941;46.422;18.772;2023-06-14T05:53:20;8.40;;;4.60;;
45198;SDS011;30941;46.422;18.772;2023-06-14T05:55:45;7.28;;;4.22;;
45198;SDS011;30941;46.422;18.772;2023-06-14T05:58:11;7.97;;;3.80;;
45198;SDS011;30941;46.422;18.772;2023-06-14T06:00:38;7.35;;;4.30;;
45198;SDS011;30941;46.422;18.772;2023-06-14T06:03:04;6.30;;;4.28;;
45198;SDS011;30941;46.422;18.772;2023-06-14T06:05:29;7.65;;;4.25;;
45198;SDS011;30941;46.422;18.772;2023-06-14T06:07:55;6.28;;;3.65;;
45198;SDS011;30941;46.422;18.772;2023-06-14T06:10:21;6.90;;;4.38;;
45198;SDS011;30941;46.422;18.772;2023-06-14T06:12:46;8.18;;;4.43;;
45198;SDS011;30941;46.422;18.772;2023-06-14T06:15:13;6.80;;;4.20;;
45198;SDS011;30941;46.422;18.772;2023-06-14T06:17:39;6.60;;;3.90;;
45198;SDS011;30941;46.422;18.772;2023-06-14T06:20:05;6.05;;;4.10;;
45198;SDS011;30941;46.422;18.772;2023-06-14T06:22:33;8.38;;;4.07;;
45198;SDS011;30941;46.422;18.772;2023-06-14T06:24:59;5.38;;;3.60;;
45198;SDS011;30941;46.422;18.772;2023-06-14T06:27:24;6.88;;;3.90;;
45198;SDS011;30941;46.422;18.772;2023-06-14T06:29:50;9.77;;;4.38;;
45198;SDS011;30941;46.422;18.772;2023-06-14T06:32:16;6.47;;;3.72;;
45198;SDS011;30941;46.422;18.772;2023-06-14T06:34:42;6.90;;;3.78;;
45198;SDS011;30941;46.422;18.772;2023-06-14T06:37:07;6.93;;;3.90;;
45198;SDS011;30941;46.422;18.772;2023-06-14T06:39:33;5.63;;;3.55;;
45198;SDS011;30941;46.422;18.772;2023-06-14T06:41:58;5.90;;;3.80;;
45198;SDS011;30941;46.422;18.772;2023-06-14T06:44:24;5.50;;;3.80;;
45198;SDS011;30941;46.422;18.772;2023-06-14T06:46:49;5.60;;;3.55;;
45198;SDS011;30941;46.422;18.772;2023-06-14T06:49:14;8.52;;;4.07;;
45198;SDS011;30941;46.422;18.772;2023-06-14T06:51:43;5.75;;;3.70;;
45198;SDS011;30941;46.422;18.772;2023-06-14T06:54:09;5.55;;;3.58;;
45198;SDS011;30941;46.422;18.772;2023-06-14T06:56:35;5.32;;;3.63;;
45198;SDS011;30941;46.422;18.772;2023-06-14T06:59:01;7.00;;;3.90;;
45198;SDS011;30941;46.422;18.772;2023-06-14T07:01:26;5.43;;;3.13;;
45198;SDS011;30941;46.422;18.772;2023-06-14T07:03:54;5.25;;;3.58;;
45198;SDS011;30941;46.422;18.772;2023-06-14T07:06:20;7.18;;;4.00;;
45198;SDS011;30941;46.422;18.772;2023-06-14T07:08:45;6.50;;;3.20;;
45198;SDS011;30941;46.422;18.772;2023-06-14T07:11:13;6.93;;;3.33;;
45198;SDS011;30941;46.422;18.772;2023-06-14T07:13:38;6.13;;;3.28;;
45198;SDS011;30941;46.422;18.772;2023-06-14T07:16:04;6.13;;;3.28;;
45198;SDS011;30941;46.422;18.772;2023-06-14T07:18:30;4.75;;;2.92;;
45198;SDS011;30941;46.422;18.772;2023-06-14T07:20:56;7.95;;;3.20;;
45198;SDS011;30941;46.422;18.772;2023-06-14T07:23:22;4.70;;;2.53;;
45198;SDS011;30941;46.422;18.772;2023-06-14T07:25:48;4.68;;;2.85;;
45198;SDS011;30941;46.422;18.772;2023-06-14T07:28:13;4.32;;;3.08;;
45198;SDS011;30941;46.422;18.772;2023-06-14T07:30:39;4.22;;;2.83;;
45198;SDS011;30941;46.422;18.772;2023-06-14T07:33:04;4.53;;;2.85;;
45198;SDS011;30941;46.422;18.772;2023-06-14T07:35:30;5.55;;;2.60;;
45198;SDS011;30941;46.422;18.772;2023-06-14T07:37:56;5.38;;;2.70;;
45198;SDS011;30941;46.422;18.772;2023-06-14T07:40:21;5.15;;;3.13;;
45198;SDS011;30941;46.422;18.772;2023-06-14T07:42:47;6.60;;;2.90;;
45198;SDS011;30941;46.422;18.772;2023-06-14T07:45:13;3.83;;;2.90;;
45198;SDS011;30941;46.422;18.772;2023-06-14T07:47:39;5.25;;;2.20;;
45198;SDS011;30941;46.422;18.772;2023-06-14T07:50:05;3.80;;;2.67;;
45198;SDS011;30941;46.422;18.772;2023-06-14T07:52:30;5.18;;;2.95;;
45198;SDS011;30941;46.422;18.772;2023-06-14T07:54:56;4.18;;;2.60;;
45198;SDS011;30941;46.422;18.772;2023-06-14T07:57:21;4.22;;;2.50;;
45198;SDS011;30941;46.422;18.772;2023-06-14T07:59:47;7.30;;;2.90;;
45198;SDS011;30941;46.422;18.772;2023-06-14T08:02:12;5.35;;;2.85;;
45198;SDS011;30941;46.422;18.772;2023-06-14T08:04:38;4.40;;;2.83;;
45198;SDS011;30941;46.422;18.772;2023-06-14T08:07:03;6.47;;;2.95;;
45198;SDS011;30941;46.422;18.772;2023-06-14T08:09:29;4.25;;;2.90;;
45198;SDS011;30941;46.422;18.772;2023-06-14T08:11:55;6.80;;;2.85;;
45198;SDS011;30941;46.422;18.772;2023-06-14T08:14:21;6.68;;;2.95;;
45198;SDS011;30941;46.422;18.772;2023-06-14T08:16:47;5.90;;;2.80;;
45198;SDS011;30941;46.422;18.772;2023-06-14T08:19:12;6.90;;;3.15;;
45198;SDS011;30941;46.422;18.772;2023-06-14T08:21:37;6.35;;;2.65;;
45198;SDS011;30941;46.422;18.772;2023-06-14T08:24:03;4.18;;;2.80;;
45198;SDS011;30941;46.422;18.772;2023-06-14T08:26:29;5.82;;;2.65;;
45198;SDS011;30941;46.422;18.772;2023-06-14T08:28:55;4.07;;;2.75;;
45198;SDS011;30941;46.422;18.772;2023-06-14T08:31:21;3.55;;;2.33;;
45198;SDS011;30941;46.422;18.772;2023-06-14T08:33:46;3.72;;;2.50;;
45198;SDS011;30941;46.422;18.772;2023-06-14T08:36:11;3.40;;;2.58;;
45198;SDS011;30941;46.422;18.772;2023-06-14T08:38:38;3.58;;;2.40;;
45198;SDS011;30941;46.422;18.772;2023-06-14T08:41:04;4.65;;;2.50;;
45198;SDS011;30941;46.422;18.772;2023-06-14T08:43:33;8.20;;;2.90;;
45198;SDS011;30941;46.422;18.772;2023-06-14T08:46:00;4.88;;;2.63;;
45198;SDS011;30941;46.422;18.772;2023-06-14T08:48:28;4.70;;;2.47;;
45198;SDS011;30941;46.422;18.772;2023-06-14T08:50:56;4.22;;;2.65;;
45198;SDS011;30941;46.422;18.772;2023-06-14T08:53:27;3.17;;;2.40;;
45198;SDS011;30941;46.422;18.772;2023-06-14T08:55:53;4.60;;;2.60;;
45198;SDS011;30941;46.422;18.772;2023-06-14T08:58:20;2.95;;;2.30;;
45198;SDS011;30941;46.422;18.772;2023-06-14T09:00:49;3.83;;;2.75;;
45198;SDS011;30941;46.422;18.772;2023-06-14T09:03:17;3.88;;;2.45;;
45198;SDS011;30941;46.422;18.772;2023-06-14T09:05:43;3.03;;;2.50;;
45198;SDS011;30941;46.422;18.772;2023-06-14T09:08:08;3.85;;;2.78;;
45198;SDS011;30941;46.422;18.772;2023-06-14T09:10:34;3.28;;;2.35;;
45198;SDS011;30941;46.422;18.772;2023-06-14T09:13:02;4.90;;;2.65;;
45198;SDS011;30941;46.422;18.772;2023-06-14T09:15:30;4.68;;;2.60;;
45198;SDS011;30941;46.422;18.772;2023-06-14T09:17:55;3.15;;;2.33;;
45198;SDS011;30941;46.422;18.772;2023-06-14T09:20:21;9.73;;;2.85;;
45198;SDS011;30941;46.422;18.772;2023-06-14T09:22:50;2.92;;;2.33;;
45198;SDS011;30941;46.422;18.772;2023-06-14T09:25:15;6.03;;;2.35;;
45198;SDS011;30941;46.422;18.772;2023-06-14T09:27:41;3.05;;;2.40;;
45198;SDS011;30941;46.422;18.772;2023-06-14T09:30:08;4.93;;;2.53;;
45198;SDS011;30941;46.422;18.772;2023-06-14T09:32:38;3.88;;;2.75;;
45198;SDS011;30941;46.422;18.772;2023-06-14T09:35:08;5.07;;;2.47;;
45198;SDS011;30941;46.422;18.772;2023-06-14T09:37:34;3.40;;;2.67;;
45198;SDS011;30941;46.422;18.772;2023-06-14T09:40:00;3.45;;;2.80;;
45198;SDS011;30941;46.422;18.772;2023-06-14T09:42:26;3.67;;;2.65;;
45198;SDS011;30941;46.422;18.772;2023-06-14T09:44:53;4.43;;;2.70;;
45198;SDS011;30941;46.422;18.772;2023-06-14T09:47:19;3.10;;;2.30;;
45198;SDS011;30941;46.422;18.772;2023-06-14T09:49:46;4.82;;;2.95;;
45198;SDS011;30941;46.422;18.772;2023-06-14T09:52:12;3.20;;;2.50;;
45198;SDS011;30941;46.422;18.772;2023-06-14T09:54:40;3.33;;;2.55;;
45198;SDS011;30941;46.422;18.772;2023-06-14T09:57:12;4.35;;;2.60;;
45198;SDS011;30941;46.422;18.772;2023-06-14T09:59:44;3.55;;;2.40;;
45198;SDS011;30941;46.422;18.772;2023-06-14T10:02:12;3.85;;;2.75;;
45198;SDS011;30941;46.422;18.772;2023-06-14T10:04:46;3.38;;;2.30;;
45198;SDS011;30941;46.422;18.772;2023-06-14T10:07:15;4.15;;;2.65;;
45198;SDS011;30941;46.422;18.772;2023-06-14T10:09:44;3.72;;;2.45;;
45198;SDS011;30941;46.422;18.772;2023-06-14T10:12:14;5.28;;;2.70;;
45198;SDS011;30941;46.422;18.772;2023-06-14T10:14:45;5.55;;;2.45;;
45198;SDS011;30941;46.422;18.772;2023-06-14T10:17:16;7.30;;;2.83;;
45198;SDS011;30941;46.422;18.772;2023-06-14T10:25:45;7.53;;;3.33;;
45198;SDS011;30941;46.422;18.772;2023-06-14T10:28:18;3.00;;;2.25;;
45198;SDS011;30941;46.422;18.772;2023-06-14T10:33:52;4.38;;;2.85;;
45198;SDS011;30941;46.422;18.772;2023-06-14T10:38:47;3.85;;;2.95;;
45198;SDS011;30941;46.422;18.772;2023-06-14T10:41:28;5.38;;;2.90;;
45198;SDS011;30941;46.422;18.772;2023-06-14T10:46:45;3.80;;;2.50;;
45198;SDS011;30941;46.422;18.772;2023-06-14T10:49:11;4.13;;;2.85;;
45198;SDS011;30941;46.422;18.772;2023-06-14T10:51:41;4.13;;;2.35;;
45198;SDS011;30941;46.422;18.772;2023-06-14T10:54:17;4.28;;;2.58;;
45198;SDS011;30941;46.422;18.772;2023-06-14T10:56:46;3.95;;;2.80;;
45198;SDS011;30941;46.422;18.772;2023-06-14T10:59:12;3.50;;;2.47;;
45198;SDS011;30941;46.422;18.772;2023-06-14T11:01:49;5.05;;;2.55;;
45198;SDS011;30941;46.422;18.772;2023-06-14T11:07:26;6.07;;;2.50;;
45198;SDS011;30941;46.422;18.772;2023-06-14T11:10:45;3.15;;;2.50;;
45198;SDS011;30941;46.422;18.772;2023-06-14T11:13:04;5.82;;;3.25;;
45198;SDS011;30941;46.422;18.772;2023-06-14T11:15:30;4.40;;;2.75;;
45198;SDS011;30941;46.422;18.772;2023-06-14T11:17:56;4.25;;;2.83;;
45198;SDS011;30941;46.422;18.772;2023-06-14T11:20:25;4.47;;;2.53;;
45198;SDS011;30941;46.422;18.772;2023-06-14T11:22:52;4.28;;;2.90;;
45198;SDS011;30941;46.422;18.772;2023-06-14T11:25:18;7.25;;;2.40;;
45198;SDS011;30941;46.422;18.772;2023-06-14T11:27:44;5.40;;;2.72;;
45198;SDS011;30941;46.422;18.772;2023-06-14T11:30:10;4.25;;;2.53;;
45198;SDS011;30941;46.422;18.772;2023-06-14T11:32:38;3.97;;;2.60;;
45198;SDS011;30941;46.422;18.772;2023-06-14T11:35:04;3.80;;;2.50;;
45198;SDS011;30941;46.422;18.772;2023-06-14T11:37:31;4.05;;;2.75;;
45198;SDS011;30941;46.422;18.772;2023-06-14T11:40:00;3.58;;;2.35;;
45198;SDS011;30941;46.422;18.772;2023-06-14T11:42:26;3.17;;;2.50;;
45198;SDS011;30941;46.422;18.772;2023-06-14T11:44:52;4.70;;;3.03;;
45198;SDS011;30941;46.422;18.772;2023-06-14T11:47:18;3.80;;;2.72;;
45198;SDS011;30941;46.422;18.772;2023-06-14T11:49:44;7.63;;;2.80;;
45198;SDS011;30941;46.422;18.772;2023-06-14T11:52:09;3.92;;;2.20;;
45198;SDS011;30941;46.422;18.772;2023-06-14T11:54:36;4.28;;;2.67;;
45198;SDS011;30941;46.422;18.772;2023-06-14T11:57:02;3.70;;;2.50;;
45198;SDS011;30941;46.422;18.772;2023-06-14T11:59:27;3.70;;;2.90;;
45198;SDS011;30941;46.422;18.772;2023-06-14T12:01:53;4.13;;;2.67;;
45198;SDS011;30941;46.422;18.772;2023-06-14T12:04:24;5.53;;;2.50;;
45198;SDS011;30941;46.422;18.772;2023-06-14T12:06:52;5.20;;;2.42;;
45198;SDS011;30941;46.422;18.772;2023-06-14T12:09:18;5.68;;;2.83;;
45198;SDS011;30941;46.422;18.772;2023-06-14T12:11:44;5.22;;;2.53;;
45198;SDS011;30941;46.422;18.772;2023-06-14T12:14:10;5.32;;;2.40;;
45198;SDS011;30941;46.422;18.772;2023-06-14T12:16:37;4.22;;;2.50;;
45198;SDS011;30941;46.422;18.772;2023-06-14T12:19:13;4.75;;;2.92;;
45198;SDS011;30941;46.422;18.772;2023-06-14T12:21:39;4.35;;;2.75;;
45198;SDS011;30941;46.422;18.772;2023-06-14T12:24:05;4.53;;;2.88;;
45198;SDS011;30941;46.422;18.772;2023-06-14T12:26:32;6.85;;;2.78;;
45198;SDS011;30941;46.422;18.772;2023-06-14T12:28:57;6.65;;;2.50;;
45198;SDS011;30941;46.422;18.772;2023-06-14T12:31:23;7.55;;;3.13;;
45198;SDS011;30941;46.422;18.772;2023-06-14T12:33:49;5.78;;;2.67;;
45198;SDS011;30941;46.422;18.772;2023-06-14T12:36:15;6.40;;;3.17;;
45198;SDS011;30941;46.422;18.772;2023-06-14T12:38:41;4.00;;;3.05;;
45198;SDS011;30941;46.422;18.772;2023-06-14T12:41:06;4.32;;;2.92;;
45198;SDS011;30941;46.422;18.772;2023-06-14T12:43:32;5.95;;;3.38;;
45198;SDS011;30941;46.422;18.772;2023-06-14T12:45:58;5.85;;;3.00;;
45198;SDS011;30941;46.422;18.772;2023-06-14T12:48:24;4.90;;;3.25;;
45198;SDS011;30941;46.422;18.772;2023-06-14T12:50:49;7.35;;;2.70;;
45198;SDS011;30941;46.422;18.772;2023-06-14T12:53:14;5.80;;;2.63;;
45198;SDS011;30941;46.422;18.772;2023-06-14T12:55:40;4.90;;;2.80;;
45198;SDS011;30941;46.422;18.772;2023-06-14T12:58:06;6.57;;;2.80;;
45198;SDS011;30941;46.422;18.772;2023-06-14T13:00:31;4.20;;;3.08;;
45198;SDS011;30941;46.422;18.772;2023-06-14T13:02:57;4.93;;;2.90;;
45198;SDS011;30941;46.422;18.772;2023-06-14T13:05:23;5.28;;;2.60;;
45198;SDS011;30941;46.422;18.772;2023-06-14T13:07:48;4.35;;;2.75;;
45198;SDS011;30941;46.422;18.772;2023-06-14T13:10:14;4.13;;;2.80;;
45198;SDS011;30941;46.422;18.772;2023-06-14T13:12:39;3.78;;;2.72;;
45198;SDS011;30941;46.422;18.772;2023-06-14T13:15:05;4.18;;;2.55;;
45198;SDS011;30941;46.422;18.772;2023-06-14T13:17:33;4.75;;;2.92;;
45198;SDS011;30941;46.422;18.772;2023-06-14T13:20:03;7.45;;;2.90;;
45198;SDS011;30941;46.422;18.772;2023-06-14T13:22:32;4.40;;;2.95;;
45198;SDS011;30941;46.422;18.772;2023-06-14T13:24:58;6.88;;;2.53;;
45198;SDS011;30941;46.422;18.772;2023-06-14T13:27:23;5.57;;;3.10;;
45198;SDS011;30941;46.422;18.772;2023-06-14T13:29:49;5.95;;;2.70;;
45198;SDS011;30941;46.422;18.772;2023-06-14T13:32:15;4.07;;;2.72;;
45198;SDS011;30941;46.422;18.772;2023-06-14T13:34:40;3.90;;;2.70;;
45198;SDS011;30941;46.422;18.772;2023-06-14T13:37:05;4.55;;;2.72;;
45198;SDS011;30941;46.422;18.772;2023-06-14T13:39:31;3.67;;;2.40;;
45198;SDS011;30941;46.422;18.772;2023-06-14T13:41:56;4.38;;;2.72;;
45198;SDS011;30941;46.422;18.772;2023-06-14T13:44:22;4.40;;;2.65;;
45198;SDS011;30941;46.422;18.772;2023-06-14T13:46:47;4.40;;;3.00;;
45198;SDS011;30941;46.422;18.772;2023-06-14T13:49:12;3.25;;;2.33;;
45198;SDS011;30941;46.422;18.772;2023-06-14T13:51:38;4.28;;;2.75;;
45198;SDS011;30941;46.422;18.772;2023-06-14T13:54:03;3.60;;;2.70;;
45198;SDS011;30941;46.422;18.772;2023-06-14T13:56:29;7.32;;;3.25;;
45198;SDS011;30941;46.422;18.772;2023-06-14T13:58:55;4.55;;;2.50;;
45198;SDS011;30941;46.422;18.772;2023-06-14T14:01:21;3.83;;;2.60;;
45198;SDS011;30941;46.422;18.772;2023-06-14T14:03:47;4.85;;;2.65;;
45198;SDS011;30941;46.422;18.772;2023-06-14T14:06:14;5.47;;;2.60;;
45198;SDS011;30941;46.422;18.772;2023-06-14T14:08:40;4.90;;;2.80;;
45198;SDS011;30941;46.422;18.772;2023-06-14T14:11:06;5.75;;;3.08;;
45198;SDS011;30941;46.422;18.772;2023-06-14T14:13:32;6.53;;;3.30;;
45198;SDS011;30941;46.422;18.772;2023-06-14T14:15:58;5.22;;;3.03;;
45198;SDS011;30941;46.422;18.772;2023-06-14T14:18:24;4.57;;;3.20;;
45198;SDS011;30941;46.422;18.772;2023-06-14T14:20:49;6.05;;;2.85;;
45198;SDS011;30941;46.422;18.772;2023-06-14T14:23:15;5.78;;;3.17;;
45198;SDS011;30941;46.422;18.772;2023-06-14T14:25:40;3.85;;;2.70;;
45198;SDS011;30941;46.422;18.772;2023-06-14T14:28:06;3.78;;;2.70;;
45198;SDS011;30941;46.422;18.772;2023-06-14T14:30:31;9.98;;;2.70;;
45198;SDS011;30941;46.422;18.772;2023-06-14T14:32:57;5.93;;;2.90;;
45198;SDS011;30941;46.422;18.772;2023-06-14T14:35:23;3.90;;;2.47;;
45198;SDS011;30941;46.422;18.772;2023-06-14T14:37:51;4.03;;;2.42;;
45198;SDS011;30941;46.422;18.772;2023-06-14T14:40:16;5.22;;;2.72;;
45198;SDS011;30941;46.422;18.772;2023-06-14T14:42:41;4.10;;;2.63;;
45198;SDS011;30941;46.422;18.772;2023-06-14T14:45:07;4.65;;;2.70;;
45198;SDS011;30941;46.422;18.772;2023-06-14T14:47:33;4.20;;;2.42;;
45198;SDS011;30941;46.422;18.772;2023-06-14T14:49:58;12.68;;;3.90;;
45198;SDS011;30941;46.422;18.772;2023-06-14T14:52:23;4.05;;;2.50;;